Time;durP1;ratioP1;P1;durP2;ratioP2;P2;SDS_P1;SDS_P2;PMS_P1;PMS_P2;Temp;Humidity;BMP_temperature;BMP_pressure;BME280_temperature;BME280_humidity;BME280_pressure;Samples;Min_cycle;Max_cycle;Signal;HPM_P1;HPM_P2
2023/09/06 00:02:07;;;;;;;1.35;1.25;;;;;;;18.00;79.92;101771.69;5013113;28;20026;-84
2023/09/06 00:04:33;;;;;;;1.48;1.38;;;;;;;18.00;80.51;101777.84;5013930;28;20032;-84
2023/09/06 00:06:59;;;;;;;1.30;1.20;;;;;;;17.98;81.06;101776.13;5013958;28;20033;-84
2023/09/06 00:09:24;;;;;;;1.00;1.00;;;;;;;17.99;79.95;101777.84;5012803;28;20026;-84
2023/09/06 00:11:49;;;;;;;1.10;1.10;;;;;;;17.96;79.77;101762.19;5013595;28;20470;-84
2023/09/06 00:14:15;;;;;;;1.00;1.00;;;;;;;17.99;81.02;101764.72;5013305;28;20068;-85
2023/09/06 00:16:41;;;;;;;1.08;1.08;;;;;;;17.95;80.46;101763.09;5013303;28;20079;-84
2023/09/06 00:19:07;;;;;;;1.13;1.10;;;;;;;17.93;80.22;101763.13;5012934;28;20474;-84
2023/09/06 00:21:36;;;;;;;1.10;1.10;;;;;;;17.88;80.00;101751.91;5013270;28;20057;-84
2023/09/06 00:24:02;;;;;;;1.40;1.30;;;;;;;17.85;80.52;101752.84;5013184;28;20425;-84
2023/09/06 00:26:27;;;;;;;1.33;1.23;;;;;;;17.75;80.50;101741.81;5021656;23;20021;-83
2023/09/06 00:28:54;;;;;;;1.40;1.30;;;;;;;17.77;80.40;101754.88;5031233;28;20056;-85
2023/09/06 00:31:19;;;;;;;1.50;1.40;;;;;;;17.77;80.87;101754.03;5032666;28;20485;-84
2023/09/06 00:33:45;;;;;;;1.33;1.23;;;;;;;17.66;81.70;101741.22;5033021;28;20029;-84
2023/09/06 00:36:11;;;;;;;1.35;1.25;;;;;;;17.66;81.74;101752.59;5032265;28;20025;-85
2023/09/06 00:38:37;;;;;;;1.00;1.00;;;;;;;17.58;81.24;101751.94;5032672;28;20029;-85
2023/09/06 00:41:02;;;;;;;1.23;1.13;;;;;;;17.54;81.79;101752.97;5022088;28;20457;-84
2023/09/06 00:43:27;;;;;;;1.00;1.00;;;;;;;17.52;81.83;101753.00;5059315;23;20053;-85
2023/09/06 00:45:53;;;;;;;1.07;1.07;;;;;;;17.48;81.94;101746.13;5052749;28;20032;-85
2023/09/06 00:48:25;;;;;;;1.40;1.30;;;;;;;17.51;81.66;101759.13;5051746;28;20029;-85
2023/09/06 00:50:54;;;;;;;1.45;1.35;;;;;;;17.50;82.24;101762.69;5052537;28;20302;-85
2023/09/06 00:53:21;;;;;;;1.40;1.30;;;;;;;17.46;83.28;101771.56;5052645;28;20052;-84
2023/09/06 00:55:48;;;;;;;1.50;1.40;;;;;;;17.41;81.95;101768.19;5052800;28;20029;-84
2023/09/06 00:58:18;;;;;;;1.40;1.30;;;;;;;17.39;82.70;101770.88;5064109;28;20400;-85
2023/09/06 01:00:45;;;;;;;1.08;1.05;;;;;;;17.36;83.00;101765.69;5059356;28;20100;-84
2023/09/06 01:03:11;;;;;;;1.00;1.00;;;;;;;17.32;83.54;101768.47;5052344;28;20493;-84
2023/09/06 01:05:47;;;;;;;1.25;1.15;;;;;;;17.23;82.62;101774.81;5052064;28;20026;-84
2023/09/06 01:08:20;;;;;;;1.40;1.30;;;;;;;17.22;82.27;101773.13;5052104;28;20377;-84
2023/09/06 01:10:46;;;;;;;1.30;1.20;;;;;;;17.19;83.12;101773.22;5052825;28;20104;-84
2023/09/06 01:13:11;;;;;;;1.07;1.07;;;;;;;17.16;83.58;101775.91;5051783;28;20104;-84
2023/09/06 01:15:43;;;;;;;1.13;1.13;;;;;;;17.12;82.78;101777.78;5051557;28;20029;-84
2023/09/06 01:18:09;;;;;;;1.30;1.20;;;;;;;17.10;83.04;101777.81;5051551;28;20397;-84
2023/09/06 01:20:44;;;;;;;1.10;1.10;;;;;;;17.07;83.37;101774.41;5071326;28;20025;-84
2023/09/06 01:23:37;;;;;;;1.20;1.10;;;;;;;17.05;82.96;101779.69;5072293;28;20028;-84
2023/09/06 01:26:03;;;;;;;1.58;1.48;;;;;;;17.02;82.95;101776.31;5056653;28;20025;-84
2023/09/06 01:28:29;;;;;;;1.50;1.40;;;;;;;16.97;83.52;101777.28;5072381;28;20025;-84
2023/09/06 01:30:55;;;;;;;1.60;1.50;;;;;;;16.88;83.28;101767.00;5072544;28;20021;-84
2023/09/06 01:33:22;;;;;;;1.23;1.13;;;;;;;16.88;84.73;101768.78;5071405;28;20027;-84
2023/09/06 01:35:48;;;;;;;1.38;1.27;;;;;;;16.85;84.70;101774.09;5072795;28;20039;-84
2023/09/06 01:38:14;;;;;;;1.05;1.05;;;;;;;16.80;84.85;101782.94;5072227;28;20021;-84
2023/09/06 01:40:39;;;;;;;1.05;1.05;;;;;;;16.80;84.53;101776.84;5071378;28;20028;-85
2023/09/06 01:43:05;;;;;;;1.13;1.03;;;;;;;16.79;84.13;101781.22;5071525;28;20515;-84
2023/09/06 01:45:31;;;;;;;1.23;1.23;;;;;;;16.78;85.06;101782.13;5072545;28;20546;-84
2023/09/06 01:47:56;;;;;;;1.15;1.15;;;;;;;16.79;85.50;101785.63;5071664;28;20024;-85
2023/09/06 01:50:22;;;;;;;1.23;1.13;;;;;;;16.76;85.20;101785.69;5072070;28;20037;-84
2023/09/06 01:52:47;;;;;;;0.93;0.93;;;;;;;16.75;84.53;101781.34;5072272;28;20377;-84
2023/09/06 01:55:13;;;;;;;1.20;1.20;;;;;;;16.77;84.70;101787.41;5071325;28;20024;-84
2023/09/06 01:57:38;;;;;;;1.03;1.00;;;;;;;16.75;86.17;101776.09;5072333;28;20060;-84
2023/09/06 02:00:19;;;;;;;1.10;1.10;;;;;;;16.71;86.69;101777.09;5074305;28;20028;-84
2023/09/06 02:02:45;;;;;;;0.93;0.93;;;;;;;16.71;85.58;101777.09;5076084;28;20032;-84
2023/09/06 02:05:10;;;;;;;0.90;0.90;;;;;;;16.62;86.15;101767.72;5075827;28;20076;-84
2023/09/06 02:07:36;;;;;;;0.90;0.90;;;;;;;16.65;87.00;101778.13;5074916;28;20182;-84
2023/09/06 02:10:03;;;;;;;0.80;0.80;;;;;;;16.66;87.08;101779.84;5076009;28;20029;-84
2023/09/06 02:12:29;;;;;;;1.50;1.40;;;;;;;16.64;89.04;101782.47;5073239;28;20021;-84
2023/09/06 02:14:56;;;;;;;1.23;1.20;;;;;;;16.64;89.30;101786.88;5034650;28;20120;-83
2023/09/06 02:17:23;;;;;;;1.20;1.10;;;;;;;16.61;88.59;101784.34;5035625;28;20025;-84
2023/09/06 02:19:49;;;;;;;1.00;1.00;;;;;;;16.59;86.81;101781.75;5035497;28;20034;-84
2023/09/06 02:22:14;;;;;;;1.37;1.27;;;;;;;16.61;86.70;101787.78;5034876;28;20021;-84
2023/09/06 02:24:39;;;;;;;1.60;1.50;;;;;;;16.61;85.91;101789.56;5036123;28;20026;-84
2023/09/06 02:27:05;;;;;;;1.50;1.40;;;;;;;16.59;85.86;101780.88;5035407;28;20026;-84
2023/09/06 02:29:30;;;;;;;1.30;1.20;;;;;;;16.63;85.88;101795.63;5034729;28;20029;-84
2023/09/06 02:31:56;;;;;;;1.63;1.53;;;;;;;16.63;86.50;101787.78;5035626;28;20064;-84
2023/09/06 02:34:21;;;;;;;1.37;1.27;;;;;;;16.62;85.52;101788.69;5035329;28;20029;-84
2023/09/06 02:36:46;;;;;;;1.30;1.30;;;;;;;16.52;85.80;101772.31;5034626;28;20030;-84
2023/09/06 02:39:13;;;;;;;1.47;1.37;;;;;;;16.59;85.81;101783.50;5035338;28;20053;-84
2023/09/06 02:41:41;;;;;;;2.63;1.30;;;;;;;16.52;85.94;101781.06;5035095;28;20026;-84
2023/09/06 02:44:16;;;;;;;1.60;1.50;;;;;;;16.47;86.00;101774.22;5034028;28;20064;-84
2023/09/06 02:46:53;;;;;;;1.60;1.50;;;;;;;16.54;85.83;101793.25;5035193;28;20029;-84
2023/09/06 02:49:18;;;;;;;1.70;1.60;;;;;;;16.55;85.88;101795.81;5034415;28;20033;-83
2023/09/06 02:51:51;;;;;;;1.70;1.60;;;;;;;16.48;85.60;101791.66;5034137;28;20045;-84
2023/09/06 02:54:31;;;;;;;1.60;1.50;;;;;;;16.39;85.72;101774.41;5034858;28;20504;-84
2023/09/06 02:57:01;;;;;;;2.20;1.80;;;;;;;16.38;85.69;101777.91;5045613;28;20489;-84
2023/09/06 02:59:47;;;;;;;1.90;1.80;;;;;;;16.38;85.69;101783.16;5054618;28;20021;-84
2023/09/06 03:02:12;;;;;;;2.03;1.90;;;;;;;16.30;85.76;101777.25;5054278;28;20029;-84
2023/09/06 03:04:51;;;;;;;1.92;1.83;;;;;;;16.38;85.55;101800.63;5054132;28;20025;-84
2023/09/06 03:07:31;;;;;;;2.58;2.00;;;;;;;16.29;85.94;101786.84;5054596;28;20438;-84
2023/09/06 03:10:11;;;;;;;1.90;1.80;;;;;;;16.28;85.87;101792.97;5054721;28;20037;-84
2023/09/06 03:12:56;;;;;;;2.17;1.98;;;;;;;16.28;85.96;101797.38;5033620;28;20061;-84
2023/09/06 03:15:23;;;;;;;1.77;1.65;;;;;;;16.25;85.84;101800.06;5034624;28;20462;-84
2023/09/06 03:17:51;;;;;;;1.80;1.70;;;;;;;16.17;86.33;101795.88;5033628;28;20493;-84
2023/09/06 03:20:42;;;;;;;1.73;1.63;;;;;;;16.08;86.84;101784.75;5034205;28;20029;-84
2023/09/06 03:23:19;;;;;;;1.83;1.73;;;;;;;16.14;86.60;101802.94;5034615;28;20021;-84
2023/09/06 03:25:49;;;;;;;1.60;1.50;;;;;;;16.07;86.63;101791.75;5033843;28;20027;-84
2023/09/06 03:28:15;;;;;;;1.80;1.70;;;;;;;16.09;86.60;101796.94;5034155;28;20057;-84
2023/09/06 03:30:42;;;;;;;1.80;1.70;;;;;;;16.06;87.68;101798.72;5034491;28;20017;-84
2023/09/06 03:33:08;;;;;;;2.00;1.90;;;;;;;16.00;87.35;101795.38;5033260;28;20116;-84
2023/09/06 03:35:34;;;;;;;;;;;;;;;15.99;87.21;101794.53;5034630;28;20501;-84
2023/09/06 03:37:59;;;;;;;1.90;1.80;;;;;;;15.95;86.79;101797.25;5048132;28;19916;-84
2023/09/06 03:40:25;;;;;;;1.88;1.75;;;;;;;15.96;87.18;101807.69;5053109;28;20031;-84
2023/09/06 03:42:56;;;;;;;1.97;1.80;;;;;;;15.93;87.23;101812.13;5053597;28;20052;-84
2023/09/06 03:45:24;;;;;;;2.13;1.90;;;;;;;15.90;87.29;101807.84;5053646;28;20035;-84
2023/09/06 03:47:51;;;;;;;1.88;1.60;;;;;;;15.85;87.24;101807.94;5053567;28;20025;-83
2023/09/06 03:50:17;;;;;;;1.80;1.70;;;;;;;15.82;87.17;101801.88;5053579;28;20071;-84
2023/09/06 03:52:45;;;;;;;1.73;1.63;;;;;;;15.77;87.39;101801.13;5053635;28;20033;-84
2023/09/06 03:55:11;;;;;;;2.05;1.90;;;;;;;15.74;87.54;101809.91;5052802;28;20124;-84
2023/09/06 03:57:37;;;;;;;2.03;1.90;;;;;;;15.75;87.34;101814.25;5053653;28;20108;-84
2023/09/06 04:03:03;;;;;;;2.20;2.00;;;;;;;15.65;87.60;101807.47;5030744;28;20055;-84
2023/09/06 04:05:29;;;;;;;2.22;1.95;;;;;;;15.66;87.84;101815.28;5053467;28;20381;-84
2023/09/06 04:07:56;;;;;;;1.90;1.80;;;;;;;15.64;87.83;101808.38;5052374;28;20043;-84
2023/09/06 04:10:35;;;;;;;2.90;1.88;;;;;;;15.62;87.80;101812.78;5053214;28;20017;-83
2023/09/06 04:13:01;;;;;;;2.10;1.95;;;;;;;15.57;87.80;101810.25;5053530;28;20051;-85
2023/09/06 04:15:27;;;;;;;2.17;1.98;;;;;;;15.57;88.14;101821.56;5052759;28;20025;-84
2023/09/06 04:17:57;;;;;;;2.05;1.70;;;;;;;15.55;88.26;101825.97;5053548;28;20029;-84
2023/09/06 04:20:35;;;;;;;1.90;1.80;;;;;;;15.50;88.80;101829.56;5053118;28;20366;-84
2023/09/06 04:23:05;;;;;;;1.95;1.80;;;;;;;15.47;88.43;101825.28;5052615;28;20023;-84
2023/09/06 04:25:33;;;;;;;1.90;1.80;;;;;;;15.44;88.44;101827.94;5052833;28;20385;-84
2023/09/06 04:27:59;;;;;;;2.13;1.92;;;;;;;15.43;88.45;101829.72;5052886;28;20412;-84
2023/09/06 04:30:30;;;;;;;2.00;1.90;;;;;;;15.43;88.68;101834.94;5053243;28;20021;-84
2023/09/06 04:32:58;;;;;;;2.10;1.80;;;;;;;15.39;88.59;101832.41;5053400;28;20115;-84
2023/09/06 04:35:33;;;;;;;1.75;1.65;;;;;;;15.37;88.85;101837.66;5051506;28;20024;-85
2023/09/06 04:37:58;;;;;;;2.03;1.83;;;;;;;15.35;88.64;101838.59;5052837;28;20029;-84
2023/09/06 04:40:24;;;;;;;1.80;1.70;;;;;;;15.34;89.07;101837.75;5052980;28;20531;-84
2023/09/06 04:42:49;;;;;;;2.83;1.50;;;;;;;15.31;89.19;101832.56;5052184;28;20151;-84
2023/09/06 04:45:14;;;;;;;2.00;1.83;;;;;;;15.29;88.91;101831.72;5052739;28;20025;-84
2023/09/06 04:47:43;;;;;;;1.60;1.50;;;;;;;15.25;89.14;101832.69;5053100;28;20029;-84
2023/09/06 04:50:12;;;;;;;1.63;1.52;;;;;;;15.24;90.20;101831.81;5051827;28;20024;-84
2023/09/06 04:52:46;;;;;;;1.63;1.55;;;;;;;15.25;89.48;101838.78;5101335;22;20028;-84
2023/09/06 04:55:13;;;;;;;1.75;1.65;;;;;;;15.25;90.06;101833.53;5012909;28;20482;-84
2023/09/06 04:57:42;;;;;;;1.70;1.60;;;;;;;15.25;90.13;101843.16;5012521;28;20401;-84
2023/09/06 05:00:23;;;;;;;1.63;1.52;;;;;;;15.23;89.80;101842.31;5013077;28;20069;-84
2023/09/06 05:02:49;;;;;;;1.40;1.30;;;;;;;15.25;90.15;101845.78;5012740;28;20471;-84
2023/09/06 05:05:15;;;;;;;1.58;1.48;;;;;;;15.23;89.91;101847.53;5011096;28;20026;-84
2023/09/06 05:07:41;;;;;;;1.70;1.60;;;;;;;15.19;89.75;101849.34;5013335;28;20108;-84
2023/09/06 05:10:10;;;;;;;2.25;1.88;;;;;;;15.14;90.03;101841.56;5012769;28;20030;-84
2023/09/06 05:12:36;;;;;;;1.77;1.60;;;;;;;15.20;90.06;101848.44;5012862;28;20029;-84
2023/09/06 05:15:02;;;;;;;1.50;1.40;;;;;;;15.15;89.98;101852.91;5012917;28;20026;-84
2023/09/06 05:17:27;;;;;;;1.50;1.40;;;;;;;15.16;91.09;101862.47;5012170;28;20037;-84
2023/09/06 05:19:53;;;;;;;1.60;1.50;;;;;;;15.16;90.76;101865.09;5012966;28;20034;-84
2023/09/06 05:22:19;;;;;;;1.67;1.57;;;;;;;15.09;90.52;101853.88;5012371;28;20101;-84
2023/09/06 05:24:45;;;;;;;1.80;1.70;;;;;;;15.16;90.51;101865.09;5012130;28;20359;-84
2023/09/06 05:27:11;;;;;;;1.60;1.50;;;;;;;15.17;90.36;101864.22;5012919;28;20033;-84
2023/09/06 05:29:36;;;;;;;1.73;1.63;;;;;;;15.17;90.40;101865.94;5012916;28;20026;-84
2023/09/06 05:32:01;;;;;;;2.40;1.60;;;;;;;15.17;90.64;101863.31;5011913;28;20041;-84
2023/09/06 05:34:29;;;;;;;1.70;1.60;;;;;;;15.21;90.67;101872.84;5013508;28;20022;-84
2023/09/06 05:36:55;;;;;;;1.50;1.40;;;;;;;15.19;90.65;101866.78;5016740;28;20044;-84
2023/09/06 05:39:20;;;;;;;1.70;1.60;;;;;;;15.21;91.07;101876.31;5015530;28;20378;-84
2023/09/06 05:41:50;;;;;;;2.10;1.60;;;;;;;15.19;91.09;101874.63;5016687;28;20280;-83
2023/09/06 05:44:15;;;;;;;1.65;1.55;;;;;;;15.21;91.34;101870.25;5015217;28;20030;-82
2023/09/06 05:46:41;;;;;;;1.50;1.40;;;;;;;15.24;91.57;101878.03;5014795;28;20467;-82
2023/09/06 05:49:08;;;;;;;1.53;1.40;;;;;;;15.24;93.19;101878.03;5016316;28;20029;-81
2023/09/06 05:51:33;;;;;;;1.92;1.77;;;;;;;15.23;92.25;101868.47;5016034;28;20483;-83
2023/09/06 05:54:01;;;;;;;1.30;1.27;;;;;;;15.23;92.29;101869.31;5015339;28;20049;-82
2023/09/06 05:56:26;;;;;;;1.63;1.52;;;;;;;15.23;93.21;101871.06;5016400;28;20025;-82
2023/09/06 05:58:52;;;;;;;1.70;1.60;;;;;;;15.27;94.77;101876.22;5016295;28;20028;-82
2023/09/06 06:01:39;;;;;;;2.17;1.97;;;;;;;15.31;94.57;101878.78;5015156;28;20069;-83
2023/09/06 06:04:05;;;;;;;2.03;1.70;;;;;;;15.28;95.30;101870.09;5016194;28;20014;-83
2023/09/06 06:06:52;;;;;;;1.80;1.70;;;;;;;15.38;95.83;101881.22;5015125;28;20030;-82
2023/09/06 06:09:21;;;;;;;2.13;1.92;;;;;;;15.28;95.80;101862.25;5015708;28;20466;-82
2023/09/06 06:12:41;;;;;;;2.30;2.10;;;;;;;15.36;96.60;101871.69;5015678;28;20029;-82
2023/09/06 06:15:13;;;;;;;3.00;2.50;;;;;;;15.51;95.68;101883.63;4954231;29;20530;-83
2023/09/06 06:18:03;;;;;;;2.50;2.30;;;;;;;15.63;94.80;101893.84;4955448;28;20126;-82
2023/09/06 06:23:14;;;;;;;2.05;1.85;;;;;;;15.78;94.84;101892.69;4955675;28;20038;-83
2023/09/06 06:28:12;;;;;;;2.30;2.10;;;;;;;15.93;95.42;101898.53;5088376;23;20049;-84
2023/09/06 06:30:38;;;;;;;2.20;2.00;;;;;;;16.00;95.93;101900.09;5035435;28;20030;-83
2023/09/06 06:33:13;;;;;;;;;;;;;;;;;;;;;
2023/09/06 06:35:51;;;;;;;1.90;1.80;;;;;;;16.16;93.83;101893.66;4990254;28;20049;-84
2023/09/06 06:38:40;;;;;;;2.58;2.10;;;;;;;16.29;92.78;101893.38;5015396;28;20512;-85
2023/09/06 06:41:15;;;;;;;2.30;2.10;;;;;;;16.41;93.92;101900.09;5015805;28;20364;-84
2023/09/06 06:43:40;;;;;;;2.17;1.95;;;;;;;16.41;95.10;101880.00;5011525;28;20393;-83
2023/09/06 06:46:23;;;;;;;2.20;2.00;;;;;;;16.62;94.05;101898.75;5013897;28;20105;-81
2023/09/06 06:48:49;;;;;;;2.00;1.90;;;;;;;16.70;94.27;101903.81;5013897;28;20022;-81
2023/09/06 06:51:14;;;;;;;2.87;2.50;;;;;;;16.78;94.19;101909.72;5014877;28;20159;-81
2023/09/06 06:53:40;;;;;;;4.63;3.10;;;;;;;16.91;97.63;101913.78;5015107;28;20053;-81
2023/09/06 06:56:06;;;;;;;4.77;3.53;;;;;;;17.01;95.28;101906.53;5014327;28;20026;-84
2023/09/06 06:58:31;;;;;;;4.38;2.95;;;;;;;17.51;95.81;101906.09;5015129;28;20030;-84
2023/09/06 07:00:57;;;;;;;3.57;2.90;;;;;;;19.75;95.70;101905.16;5015196;28;20028;-84
2023/09/06 07:03:24;;;;;;;2.83;2.50;;;;;;;22.47;75.57;101895.44;5013964;28;20112;-82
2023/09/06 07:06:11;;;;;;;4.28;2.65;;;;;;;25.06;70.68;101904.56;5015122;28;20022;-84
2023/09/06 07:08:35;;;;;;;4.90;3.13;;;;;;;27.15;69.49;101917.88;5016227;28;20034;-82
2023/09/06 07:11:03;;;;;;;3.53;2.55;;;;;;;28.49;66.20;101915.47;5014400;28;20377;-82
2023/09/06 07:13:29;;;;;;;2.50;2.30;;;;;;;29.39;58.40;101915.84;5015107;28;20026;-82
2023/09/06 07:15:54;;;;;;;3.35;2.65;;;;;;;29.46;57.89;101916.22;5014663;28;20022;-82
2023/09/06 07:18:20;;;;;;;2.77;2.40;;;;;;;28.80;58.63;101913.19;5031145;28;20025;-82
2023/09/06 07:20:47;;;;;;;2.10;1.90;;;;;;;27.65;57.58;101915.31;5034815;28;20021;-82
2023/09/06 07:23:12;;;;;;;2.42;2.22;;;;;;;26.38;63.23;101917.69;5034288;28;20026;-80
2023/09/06 07:25:38;;;;;;;2.20;2.00;;;;;;;25.24;63.35;101910.56;5033718;28;20025;-84
2023/09/06 07:28:03;;;;;;;2.33;2.13;;;;;;;24.33;68.18;101920.22;5034109;28;20045;-77
2023/09/06 07:30:29;;;;;;;2.40;2.10;;;;;;;23.62;70.81;101917.94;5034575;28;20116;-83
2023/09/06 07:32:54;;;;;;;2.43;2.20;;;;;;;23.06;69.11;101904.91;5025169;28;20367;-81
2023/09/06 07:35:19;;;;;;;3.00;2.20;;;;;;;22.59;71.29;101901.06;5033720;28;20033;-81
2023/09/06 07:37:45;;;;;;;2.20;2.00;;;;;;;22.32;72.98;101907.59;5034070;28;20116;-81
2023/09/06 07:40:11;;;;;;;2.73;2.23;;;;;;;22.03;73.74;101909.84;5014911;28;20029;-81
2023/09/06 07:42:38;;;;;;;2.75;2.50;;;;;;;21.88;76.78;101918.47;5013811;28;20486;-81
2023/09/06 07:45:05;;;;;;;2.85;2.38;;;;;;;21.72;75.75;101913.91;5013094;28;20372;-81
2023/09/06 07:47:30;;;;;;;2.30;2.10;;;;;;;21.62;76.38;101924.94;5014379;28;20530;-81
2023/09/06 07:49:55;;;;;;;4.10;2.60;;;;;;;21.56;76.41;101911.03;5014464;28;20161;-82
2023/09/06 07:52:21;;;;;;;2.87;2.30;;;;;;;21.53;76.99;101920.91;5031970;28;20013;-81
2023/09/06 07:54:46;;;;;;;1.97;1.87;;;;;;;21.52;77.26;101912.13;5033960;28;20029;-81
2023/09/06 07:57:11;;;;;;;2.97;2.30;;;;;;;21.56;78.40;101912.84;5033200;28;20466;-81
2023/09/06 07:59:37;;;;;;;2.20;2.00;;;;;;;21.56;77.54;101911.03;5033059;28;20027;-81
2023/09/06 08:02:02;;;;;;;3.67;2.73;;;;;;;21.57;77.90;101915.41;5033133;28;20381;-81
2023/09/06 08:04:28;;;;;;;3.00;2.70;;;;;;;21.64;77.83;101921.31;5033918;28;20438;-82
2023/09/06 08:06:55;;;;;;;2.73;2.40;;;;;;;21.67;78.31;101921.19;5025701;28;20449;-82
2023/09/06 08:09:21;;;;;;;3.45;2.85;;;;;;;21.74;78.00;101917.31;5032588;28;20494;-82
2023/09/06 08:11:46;;;;;;;4.00;3.10;;;;;;;21.83;78.00;101925.78;5017764;28;20028;-83
2023/09/06 08:14:11;;;;;;;4.10;3.30;;;;;;;21.94;78.15;101927.91;5012613;28;20034;-82
2023/09/06 08:16:37;;;;;;;5.07;3.00;;;;;;;21.98;77.41;101924.22;5033336;28;20474;-84
2023/09/06 08:19:05;;;;;;;3.67;2.80;;;;;;;22.06;77.40;101930.84;5019537;28;20056;-83
2023/09/06 08:21:34;;;;;;;4.07;2.70;;;;;;;22.17;77.26;101929.50;5012486;28;20113;-83
2023/09/06 08:24:01;;;;;;;2.47;2.28;;;;;;;22.28;77.11;101927.19;5013613;28;20022;-82
2023/09/06 08:26:27;;;;;;;2.40;2.20;;;;;;;22.42;77.20;101930.97;5013017;28;20034;-80
2023/09/06 08:28:52;;;;;;;4.37;2.70;;;;;;;22.48;75.70;101926.25;5013022;28;20026;-80
2023/09/06 08:31:17;;;;;;;2.67;2.43;;;;;;;22.58;75.94;101920.50;5013464;28;20030;-80
2023/09/06 08:33:43;;;;;;;3.20;2.77;;;;;;;22.68;75.29;101922.63;5013297;28;20382;-81
2023/09/06 08:36:08;;;;;;;3.17;2.80;;;;;;;22.79;75.00;101924.75;5012830;28;20081;-81
2023/09/06 08:38:33;;;;;;;3.13;2.47;;;;;;;22.91;74.59;101922.44;5013463;28;20025;-82
2023/09/06 08:40:59;;;;;;;2.70;2.50;;;;;;;23.01;74.68;101921.03;5016038;28;20493;-83
2023/09/06 08:43:33;;;;;;;3.20;2.40;;;;;;;23.13;75.04;101919.53;5021772;28;20481;-83
2023/09/06 08:46:00;;;;;;;4.30;2.80;;;;;;;23.26;73.05;101928.59;5023688;28;20421;-83
2023/09/06 08:48:26;;;;;;;4.30;3.15;;;;;;;23.37;74.31;101925.38;5026217;28;20028;-83
2023/09/06 08:50:52;;;;;;;3.53;2.72;;;;;;;23.45;74.03;101917.00;5024196;28;20025;-83
2023/09/06 08:53:18;;;;;;;;;;;;;;;23.61;74.35;101925.00;5015912;28;20029;-82
2023/09/06 08:55:45;;;;;;;3.85;2.63;;;;;;;23.70;73.63;101926.31;5024300;28;19921;-82
2023/09/06 08:58:11;;;;;;;3.30;2.55;;;;;;;23.89;72.64;101934.97;5016111;28;20034;-83
2023/09/06 09:00:38;;;;;;;2.70;2.30;;;;;;;23.94;72.50;101929.41;5018481;28;20024;-83
2023/09/06 09:03:03;;;;;;;3.88;2.60;;;;;;;23.99;67.35;101930.06;5011924;28;20021;-82
2023/09/06 09:05:29;;;;;;;4.00;2.47;;;;;;;24.09;71.17;101926.91;5012360;28;20044;-83
2023/09/06 09:08:01;;;;;;;2.67;2.40;;;;;;;24.23;70.71;101926.13;5012909;28;20072;-83
2023/09/06 09:10:31;;;;;;;4.15;2.70;;;;;;;24.30;69.34;101930.16;5029003;28;20034;-83
2023/09/06 09:12:58;;;;;;;2.42;2.13;;;;;;;24.42;70.27;101929.47;5032789;28;20033;-82
2023/09/06 09:15:25;;;;;;;2.83;2.50;;;;;;;24.49;67.69;101930.81;5032453;28;20063;-83
2023/09/06 09:17:51;;;;;;;2.70;2.38;;;;;;;24.66;69.51;101937.81;5031867;28;20029;-83
2023/09/06 09:20:18;;;;;;;3.50;2.50;;;;;;;24.75;66.55;101925.84;5032315;28;20075;-82
2023/09/06 09:22:44;;;;;;;2.70;2.42;;;;;;;24.87;64.36;101929.56;5032651;28;20021;-83
2023/09/06 09:25:15;;;;;;;4.15;2.70;;;;;;;24.95;66.24;101919.31;5031248;28;20028;-83
2023/09/06 09:27:57;;;;;;;3.67;2.70;;;;;;;25.02;65.33;101922.47;5030588;28;20076;-83
2023/09/06 09:30:23;;;;;;;2.78;2.40;;;;;;;25.15;66.28;101930.59;5032371;28;20034;-83
2023/09/06 09:32:56;;;;;;;2.45;2.25;;;;;;;25.27;65.53;101928.97;5032159;28;20053;-82
2023/09/06 09:35:22;;;;;;;2.42;2.20;;;;;;;25.39;64.72;101932.69;5032118;28;20417;-82
2023/09/06 09:37:51;;;;;;;2.40;2.20;;;;;;;25.46;64.81;101926.09;5024171;28;20120;-83
2023/09/06 09:40:32;;;;;;;2.63;2.40;;;;;;;25.58;65.22;101921.78;5012173;28;20474;-82
2023/09/06 09:42:59;;;;;;;2.50;2.20;;;;;;;25.69;62.36;101923.81;5012827;28;20060;-82
2023/09/06 09:45:26;;;;;;;2.75;2.30;;;;;;;25.78;64.84;101922.38;5011350;28;20030;-82
2023/09/06 09:47:57;;;;;;;3.03;2.40;;;;;;;25.88;62.36;101921.69;5012729;28;20116;-82
2023/09/06 09:50:26;;;;;;;2.67;2.28;;;;;;;25.95;64.56;101916.84;5012267;28;20034;-82
2023/09/06 09:52:53;;;;;;;2.33;2.00;;;;;;;26.06;63.15;101916.16;5011502;28;20073;-81
2023/09/06 09:55:24;;;;;;;2.40;2.20;;;;;;;26.15;64.26;101906.75;5012276;28;20084;-82
2023/09/06 09:57:51;;;;;;;2.38;1.92;;;;;;;26.26;63.21;101920.19;5025275;28;20041;-83
2023/09/06 10:00:27;;;;;;;3.08;2.42;;;;;;;26.37;62.78;101916.84;5030148;28;20021;-83
2023/09/06 10:02:56;;;;;;;2.60;2.40;;;;;;;26.39;63.12;101912.28;5031055;28;20100;-82
2023/09/06 10:05:23;;;;;;;3.70;2.50;;;;;;;26.46;63.12;101910.91;5032229;28;20032;-83
2023/09/06 10:07:49;;;;;;;2.80;2.40;;;;;;;26.62;61.35;101915.22;5030507;28;20034;-82
2023/09/06 10:10:15;;;;;;;;;;;;;;;26.73;62.39;101914.50;5032445;28;20036;-83
2023/09/06 10:12:44;;;;;;;3.03;2.30;;;;;;;26.83;62.20;101918.25;5031390;28;19917;-82
2023/09/06 10:15:13;;;;;;;3.45;2.25;;;;;;;26.92;62.85;101908.81;5031895;28;20037;-82
2023/09/06 10:17:39;;;;;;;2.40;2.20;;;;;;;27.05;62.08;101906.16;5031912;28;20486;-83
2023/09/06 10:20:05;;;;;;;2.53;2.17;;;;;;;27.16;62.59;101910.75;5031586;28;20033;-82
2023/09/06 10:22:31;;;;;;;;;;;;;;;27.25;59.92;101905.63;5036279;28;20025;-75
2023/09/06 10:25:06;;;;;;;5.95;3.20;;;;;;;27.19;56.28;101903.38;5033112;28;20296;-81
2023/09/06 10:27:32;;;;;;;3.85;2.72;;;;;;;27.24;56.05;101903.94;5034397;28;20081;-81
2023/09/06 10:29:59;;;;;;;3.35;2.97;;;;;;;27.26;57.12;101899.31;5035512;28;20585;-82
2023/09/06 10:32:41;;;;;;;2.85;2.55;;;;;;;27.41;53.60;101904.53;5035061;28;20108;-81
2023/09/06 10:35:22;;;;;;;3.72;2.53;;;;;;;27.56;56.58;101910.63;5034272;28;20482;-82
2023/09/06 10:38:18;;;;;;;3.97;2.78;;;;;;;27.62;55.66;101909.34;5035059;28;20033;-82
2023/09/06 10:40:49;;;;;;;4.55;2.75;;;;;;;27.70;50.53;101906.97;5035094;28;20418;-81
2023/09/06 10:44:00;;;;;;;3.35;2.65;;;;;;;27.76;54.01;101906.56;5035032;28;20037;-82
2023/09/06 10:46:28;;;;;;;4.07;2.67;;;;;;;27.80;52.89;101902.72;5014920;28;20041;-81
2023/09/06 10:49:12;;;;;;;2.75;2.55;;;;;;;27.95;54.22;101906.06;5034490;28;20033;-82
2023/09/06 10:51:59;;;;;;;2.58;2.20;;;;;;;28.11;52.70;101894.28;5034939;28;20036;-82
2023/09/06 10:54:47;;;;;;;2.72;2.50;;;;;;;28.18;52.39;101900.91;5033094;28;20037;-82
2023/09/06 10:57:14;;;;;;;4.82;2.67;;;;;;;28.23;53.71;101901.41;5034638;28;20087;-82
2023/09/06 10:59:56;;;;;;;2.85;2.40;;;;;;;28.29;53.92;101889.41;5034966;28;20091;-82
2023/09/06 11:02:21;;;;;;;2.63;2.40;;;;;;;28.39;53.03;101890.44;5033852;28;20409;-82
2023/09/06 11:04:47;;;;;;;;;;;;;;;28.52;54.37;101893.88;5034937;28;20506;-82
2023/09/06 11:07:13;;;;;;;2.33;2.10;;;;;;;28.67;53.87;101889.19;5033407;28;19913;-82
2023/09/06 11:09:43;;;;;;;;;;;;;;;28.80;53.27;101885.63;5033947;28;20030;-82
2023/09/06 11:12:13;;;;;;;2.90;2.15;;;;;;;28.86;48.47;101884.28;5034325;28;19916;-76
2023/09/06 11:14:40;;;;;;;3.50;2.40;;;;;;;28.91;46.24;101885.63;5035477;28;20111;-88
2023/09/06 11:17:05;;;;;;;2.75;2.20;;;;;;;28.96;51.28;101885.28;5034254;28;20116;-87
2023/09/06 11:19:31;;;;;;;;;;;;;;;29.01;47.38;101884.91;5034852;28;20175;-86
2023/09/06 11:22:21;;;;;;;2.30;2.10;;;;;;;29.09;50.89;101885.19;5034512;28;19999;-86
2023/09/06 11:24:48;;;;;;;3.85;2.35;;;;;;;29.02;50.04;101870.59;5022209;28;20363;-87
2023/09/06 11:27:38;;;;;;;5.18;2.88;;;;;;;28.99;46.80;101881.53;5029312;28;20049;-84
2023/09/06 11:30:10;;;;;;;3.22;2.55;;;;;;;28.99;48.34;101879.72;5028115;28;20052;-84
2023/09/06 11:32:39;;;;;;;2.47;2.28;;;;;;;29.18;49.30;101879.13;5014043;28;20462;-83
2023/09/06 11:35:09;;;;;;;2.30;2.10;;;;;;;29.32;49.19;101878.03;5013998;28;20079;-82
2023/09/06 11:37:41;;;;;;;2.40;2.20;;;;;;;29.41;48.60;101882.66;5013795;28;20029;-83
2023/09/06 11:40:14;;;;;;;2.45;2.08;;;;;;;29.48;49.50;101877.69;5014276;28;20073;-76
2023/09/06 11:42:42;;;;;;;3.30;2.30;;;;;;;29.52;48.75;101873.81;5015162;28;20068;-76
2023/09/06 11:45:09;;;;;;;2.42;2.20;;;;;;;29.53;48.86;101867.47;5032851;28;20037;-76
2023/09/06 11:47:35;;;;;;;3.45;2.50;;;;;;;29.61;48.86;101876.69;5034436;28;20029;-77